Time;durP1;ratioP1;P1;durP2;ratioP2;P2;SDS_P1;SDS_P2;PMS_P1;PMS_P2;Temp;Humidity;BMP_temperature;BMP_pressure;BME280_temperature;BME280_humidity;BME280_pressure;Samples;Min_cycle;Max_cycle;Signal;HPM_P1;HPM_P2
2021/09/24 00:08:04;;;;;;;1.30;0.70;;;19.10;99.90;;;;;;21220066;23;20321;-68
2021/09/24 00:18:09;;;;;;;0.83;0.37;;;19.10;99.90;;;;;;21246077;27;20209;-68
2021/09/24 00:28:13;;;;;;;1.37;1.00;;;19.00;99.90;;;;;;21160405;28;20706;-67
2021/09/24 00:38:18;;;;;;;1.67;1.20;;;19.00;99.90;;;;;;21159631;28;20618;-68
2021/09/24 00:48:21;;;;;;;8.13;0.73;;;18.90;99.90;;;;;;21159488;28;20219;-68
2021/09/24 00:58:27;;;;;;;0.30;0.20;;;18.80;99.90;;;;;;21157814;28;20191;-69
2021/09/24 01:08:32;;;;;;;0.20;0.10;;;18.70;99.90;;;;;;21157229;28;20229;-68
2021/09/24 01:18:37;;;;;;;0.47;0.47;;;18.50;99.90;;;;;;21160091;27;20191;-68
2021/09/24 01:28:44;;;;;;;0.50;0.50;;;18.30;99.90;;;;;;21239758;27;20321;-68
2021/09/24 01:38:48;;;;;;;0.60;0.60;;;18.50;99.90;;;;;;21239360;27;20652;-68
2021/09/24 01:48:53;;;;;;;0.20;0.17;;;18.40;99.90;;;;;;21238528;27;20257;-68
2021/09/24 01:58:56;;;;;;;0.80;0.57;;;18.30;99.90;;;;;;21220029;27;20281;-69
2021/09/24 02:09:01;;;;;;;0.70;0.70;;;18.30;99.90;;;;;;21140757;22;20242;-70
2021/09/24 02:19:05;;;;;;;0.40;0.40;;;18.30;99.90;;;;;;21150972;28;20294;-70
2021/09/24 02:29:11;;;;;;;0.20;0.13;;;18.20;99.90;;;;;;21150863;28;20284;-70
2021/09/24 02:39:14;;;;;;;0.23;0.20;;;18.20;99.90;;;;;;21131685;28;20195;-70
2021/09/24 02:49:20;;;;;;;1.90;0.93;;;18.40;99.90;;;;;;21150024;28;20606;-69
2021/09/24 02:59:23;;;;;;;0.20;0.10;;;18.50;99.90;;;;;;21155828;28;20195;-70
2021/09/24 03:09:29;;;;;;;1.93;0.63;;;18.50;99.90;;;;;;21165444;28;20218;-71
2021/09/24 03:19:33;;;;;;;0.53;0.30;;;18.30;99.90;;;;;;21164521;28;20274;-71
2021/09/24 03:29:38;;;;;;;0.20;0.20;;;18.20;99.90;;;;;;21164035;28;20545;-70
2021/09/24 03:39:42;;;;;;;0.43;0.43;;;18.00;99.90;;;;;;21144695;28;20552;-72
2021/09/24 03:49:47;;;;;;;0.30;0.30;;;18.00;99.90;;;;;;21143874;28;20918;-70
2021/09/24 03:59:55;;;;;;;0.30;0.30;;;18.10;99.90;;;;;;21162549;28;20676;-70
2021/09/24 04:10:00;;;;;;;4.47;0.53;;;18.10;99.90;;;;;;21160091;28;20299;-71
2021/09/24 04:20:05;;;;;;;0.60;0.30;;;17.90;99.90;;;;;;21159782;28;20532;-71
2021/09/24 04:30:11;;;;;;;0.60;0.60;;;17.90;99.90;;;;;;21159680;28;20314;-72
2021/09/24 04:40:15;;;;;;;0.50;0.50;;;17.80;99.90;;;;;;21140289;28;20525;-71
2021/09/24 04:50:20;;;;;;;0.83;0.50;;;17.80;99.90;;;;;;21157457;28;20222;-70
2021/09/24 05:00:24;;;;;;;0.40;0.30;;;17.90;99.90;;;;;;21156565;28;20341;-71
2021/09/24 05:10:29;;;;;;;0.60;0.60;;;17.90;99.90;;;;;;21137422;28;20230;-70
2021/09/24 05:20:32;;;;;;;0.83;0.80;;;17.80;99.90;;;;;;21153520;28;20218;-71
2021/09/24 05:30:38;;;;;;;0.83;0.63;;;17.70;99.90;;;;;;21153991;28;20298;-69
2021/09/24 05:40:42;;;;;;;0.80;0.63;;;17.90;99.90;;;;;;21153066;28;20219;-70
2021/09/24 05:50:47;;;;;;;0.30;0.20;;;17.70;99.90;;;;;;21133259;28;20630;-72
2021/09/24 06:00:50;;;;;;;0.57;0.57;;;17.90;99.90;;;;;;21132068;28;20223;-70
2021/09/24 06:10:57;;;;;;;4.63;0.70;;;18.30;99.90;;;;;;21130252;28;20562;-69
2021/09/24 06:21:02;;;;;;;2.30;0.63;;;18.50;99.90;;;;;;21149065;28;20570;-71
2021/09/24 06:31:08;;;;;;;0.90;0.50;;;18.70;99.90;;;;;;21148805;28;20724;-69
2021/09/24 06:41:12;;;;;;;0.47;0.40;;;19.00;99.90;;;;;;21148731;28;20192;-71
2021/09/24 06:51:17;;;;;;;1.60;1.23;;;19.10;99.90;;;;;;21145867;28;20223;-69
2021/09/24 07:01:22;;;;;;;1.23;0.97;;;19.20;99.90;;;;;;21129064;28;20226;-71
2021/09/24 07:11:28;;;;;;;2.40;1.33;;;19.50;99.90;;;;;;21128093;28;20250;-70
2021/09/24 07:21:31;;;;;;;0.60;0.60;;;19.70;99.90;;;;;;21146132;28;20206;-70
2021/09/24 07:31:36;;;;;;;6.67;3.47;;;20.00;99.90;;;;;;21145885;28;20306;-68
2021/09/24 07:41:40;;;;;;;1.10;1.00;;;20.80;99.90;;;;;;21145890;28;20556;-70
2021/09/24 07:51:48;;;;;;;1.30;0.50;;;21.20;99.90;;;;;;21160331;28;20215;-69
2021/09/24 08:01:51;;;;;;;1.47;0.80;;;21.80;99.90;;;;;;21159578;28;20260;-69
2021/09/24 08:11:57;;;;;;;0.63;0.40;;;22.60;99.90;;;;;;21139720;28;20222;-68
2021/09/24 08:22:01;;;;;;;0.68;0.52;;;23.30;99.90;;;;;;21156215;28;20234;-70
2021/09/24 08:32:07;;;;;;;0.75;0.63;;;23.50;99.90;;;;;;21157595;28;20511;-71
2021/09/24 08:42:11;;;;;;;1.40;0.85;;;23.70;99.90;;;;;;21155561;28;20664;-68
2021/09/24 08:52:18;;;;;;;0.40;0.20;;;23.80;99.90;;;;;;21156998;28;20322;-69
2021/09/24 09:02:21;;;;;;;1.67;0.77;;;24.10;99.90;;;;;;21154198;28;20295;-69
2021/09/24 09:12:28;;;;;;;2.95;0.55;;;24.30;99.90;;;;;;21153551;28;20231;-71
2021/09/24 09:22:32;;;;;;;0.32;0.32;;;24.30;99.90;;;;;;21152485;28;20192;-68
2021/09/24 09:32:37;;;;;;;1.52;0.57;;;24.80;99.90;;;;;;21152930;28;20234;-68
2021/09/24 09:42:44;;;;;;;1.83;1.73;;;25.20;99.90;;;;;;21150840;28;20237;-68
2021/09/24 09:53:04;;;;;;;0.80;0.80;;;25.30;99.90;;;;;;21149161;28;20231;-69
2021/09/24 10:03:10;;;;;;;1.10;0.63;;;25.50;99.90;;;;;;21149962;28;20230;-71
2021/09/24 10:13:18;;;;;;;0.50;0.50;;;26.00;99.90;;;;;;21130663;28;20227;-68
2021/09/24 10:23:24;;;;;;;0.75;0.75;;;25.90;99.90;;;;;;21148914;28;20590;-68
2021/09/24 10:33:51;;;;;;;4.15;1.23;;;27.10;99.90;;;;;;21147557;28;20257;-68
2021/09/24 10:43:57;;;;;;;0.70;0.50;;;27.20;99.90;;;;;;21146467;28;20195;-68
2021/09/24 10:54:16;;;;;;;3.35;0.70;;;27.60;99.90;;;;;;21147207;28;20218;-68
2021/09/24 11:04:20;;;;;;;0.20;0.10;;;27.10;99.90;;;;;;21146075;28;20334;-75
2021/09/24 11:14:31;;;;;;;0.20;0.10;;;27.30;99.90;;;;;;21145953;28;20330;-69
2021/09/24 11:24:38;;;;;;;0.50;0.50;;;27.00;99.90;;;;;;21160249;28;20187;-69
2021/09/24 11:34:56;;;;;;;0.20;0.05;;;25.80;99.90;;;;;;21160487;28;20297;-68
2021/09/24 11:45:06;;;;;;;0.20;0.00;;;26.00;99.90;;;;;;21161177;28;20191;-69
2021/09/24 11:55:20;;;;;;;0.20;0.00;;;26.60;99.90;;;;;;21142403;28;20219;-69
2021/09/24 12:05:24;;;;;;;0.20;0.00;;;27.00;99.90;;;;;;21159496;28;20699;-70
2021/09/24 12:15:56;;;;;;;0.20;0.10;;;27.40;99.90;;;;;;21141618;28;20263;-72
2021/09/24 12:26:02;;;;;;;0.20;0.00;;;27.10;99.90;;;;;;21157475;28;20188;-69
2021/09/24 12:36:08;;;;;;;0.20;0.00;;;26.90;99.90;;;;;;21152819;28;20219;-69
2021/09/24 12:46:15;;;;;;;0.28;0.13;;;26.60;99.90;;;;;;21155991;28;20187;-68
2021/09/24 12:56:22;;;;;;;7.32;3.03;;;26.30;99.90;;;;;;21155690;28;20192;-69
2021/09/24 13:06:28;;;;;;;1.10;1.00;;;26.00;99.90;;;;;;21154574;28;20220;-71
2021/09/24 13:16:33;;;;;;;2.63;0.80;;;25.80;99.90;;;;;;21154366;28;20196;-69
2021/09/24 13:26:38;;;;;;;0.57;0.57;;;25.60;99.90;;;;;;21153722;28;20307;-69
2021/09/24 13:36:43;;;;;;;7.85;1.77;;;25.80;99.90;;;;;;21153497;28;20187;-69
2021/09/24 13:46:47;;;;;;;1.27;0.70;;;26.00;99.90;;;;;;21133020;28;20253;-68
2021/09/24 13:56:58;;;;;;;3.10;1.38;;;25.80;99.90;;;;;;21132245;28;20706;-68
2021/09/24 14:07:02;;;;;;;1.08;0.63;;;25.70;99.90;;;;;;21150078;28;20222;-68
2021/09/24 14:17:07;;;;;;;2.60;1.08;;;25.00;99.90;;;;;;21150463;28;20191;-69
2021/09/24 14:27:11;;;;;;;7.85;1.17;;;25.10;99.90;;;;;;21148191;28;20215;-70
2021/09/24 14:37:16;;;;;;;1.45;0.88;;;25.10;99.90;;;;;;21147883;28;20674;-69
2021/09/24 14:47:22;;;;;;;3.08;0.82;;;25.20;99.90;;;;;;21147711;28;20219;-70
2021/09/24 14:57:27;;;;;;;1.58;0.30;;;25.30;99.90;;;;;;21158794;28;20191;-70
2021/09/24 15:07:34;;;;;;;1.80;1.42;;;25.40;99.90;;;;;;21163485;28;20230;-70
2021/09/24 15:17:39;;;;;;;0.60;0.50;;;25.30;99.90;;;;;;21163879;28;20192;-69
2021/09/24 15:27:46;;;;;;;0.38;0.38;;;24.60;99.90;;;;;;21161606;28;20223;-69
2021/09/24 15:37:51;;;;;;;0.50;0.40;;;24.50;99.90;;;;;;21160889;28;20195;-69
2021/09/24 15:47:58;;;;;;;1.02;0.50;;;24.30;99.90;;;;;;21158433;28;20704;-70
2021/09/24 15:58:03;;;;;;;0.60;0.40;;;24.50;99.90;;;;;;21160211;28;20187;-70
2021/09/24 16:08:07;;;;;;;1.10;0.88;;;24.60;99.90;;;;;;21154585;28;20220;-70
2021/09/24 16:18:12;;;;;;;0.20;0.13;;;24.50;99.90;;;;;;21155837;28;20221;-74
2021/09/24 16:28:16;;;;;;;0.85;0.85;;;24.50;99.90;;;;;;21146236;28;20578;-71
2021/09/24 16:38:22;;;;;;;1.25;1.08;;;24.30;99.90;;;;;;21109838;28;20201;-73
2021/09/24 16:48:26;;;;;;;0.25;0.25;;;24.10;99.90;;;;;;21087502;28;20260;-75
2021/09/24 16:58:31;;;;;;;0.70;0.70;;;24.00;99.90;;;;;;21101311;28;20286;-72
2021/09/24 17:08:34;;;;;;;0.40;0.35;;;24.00;99.90;;;;;;21110869;28;20258;-72
2021/09/24 17:18:39;;;;;;;0.43;0.40;;;23.60;99.90;;;;;;21110215;28;20667;-73
2021/09/24 17:28:44;;;;;;;0.22;0.13;;;23.40;99.90;;;;;;21115983;28;20233;-74
2021/09/24 17:38:49;;;;;;;2.28;1.17;;;23.20;99.90;;;;;;21105631;28;20290;-72
2021/09/24 17:48:52;;;;;;;1.38;0.90;;;23.10;99.90;;;;;;21126270;28;20734;-73
2021/09/24 17:58:58;;;;;;;0.55;0.55;;;22.90;99.90;;;;;;21145061;28;20197;-74
2021/09/24 18:09:01;;;;;;;0.50;0.50;;;22.80;99.90;;;;;;21125955;28;20235;-73
2021/09/24 18:19:07;;;;;;;0.53;0.53;;;22.70;99.90;;;;;;21118519;28;20237;-83
2021/09/24 18:29:11;;;;;;;1.17;1.03;;;22.70;99.90;;;;;;21058132;28;20599;-71
2021/09/24 18:39:16;;;;;;;1.13;0.73;;;23.00;99.90;;;;;;21057969;28;20238;-72
2021/09/24 18:49:20;;;;;;;3.22;0.68;;;23.00;99.90;;;;;;21057771;28;20225;-72
2021/09/24 18:59:25;;;;;;;1.60;1.03;;;23.00;99.90;;;;;;21108902;28;20198;-72
2021/09/24 19:09:28;;;;;;;1.05;0.65;;;23.00;99.90;;;;;;21142087;28;20219;-73
2021/09/24 19:19:33;;;;;;;0.52;0.45;;;23.00;99.90;;;;;;21130064;28;20283;-72
2021/09/24 19:29:37;;;;;;;0.75;0.70;;;23.00;99.90;;;;;;21057292;28;20224;-73
2021/09/24 19:39:42;;;;;;;1.05;0.82;;;23.00;99.90;;;;;;21059707;28;20283;-73
2021/09/24 19:49:46;;;;;;;1.17;0.52;;;23.10;99.90;;;;;;21084930;28;20219;-72
2021/09/24 19:59:51;;;;;;;0.30;0.20;;;23.20;99.90;;;;;;21157206;28;20262;-71
2021/09/24 20:09:55;;;;;;;0.30;0.25;;;23.20;99.90;;;;;;21155765;28;20281;-72
2021/09/24 20:20:02;;;;;;;0.93;0.57;;;23.30;99.90;;;;;;21154682;28;20290;-73
2021/09/24 20:30:08;;;;;;;1.85;0.82;;;23.30;99.90;;;;;;21155434;28;20227;-73
2021/09/24 20:40:14;;;;;;;0.50;0.47;;;23.40;99.90;;;;;;21136411;28;20317;-72
2021/09/24 20:50:19;;;;;;;0.50;0.50;;;23.30;99.90;;;;;;21083020;28;20329;-72
2021/09/24 21:00:26;;;;;;;1.17;1.08;;;23.10;99.90;;;;;;21067839;28;20318;-71
2021/09/24 21:10:29;;;;;;;1.38;1.27;;;23.10;99.90;;;;;;21065981;28;20234;-73
2021/09/24 21:20:35;;;;;;;1.98;0.30;;;23.10;99.90;;;;;;21086793;28;20237;-73
2021/09/24 21:30:40;;;;;;;1.63;0.68;;;23.10;99.90;;;;;;21136377;28;20224;-73
2021/09/24 21:40:46;;;;;;;0.75;0.50;;;23.00;99.90;;;;;;21067328;28;20280;-72
2021/09/24 21:50:50;;;;;;;0.85;0.85;;;22.90;99.90;;;;;;21070939;28;20609;-72
2021/09/24 22:00:55;;;;;;;0.88;0.40;;;22.70;99.90;;;;;;21073901;28;20247;-73
2021/09/24 22:10:59;;;;;;;1.45;0.40;;;22.80;99.90;;;;;;21103032;28;20277;-75
2021/09/24 22:21:05;;;;;;;0.73;0.73;;;22.70;99.90;;;;;;21129769;28;20188;-72
2021/09/24 22:31:10;;;;;;;1.45;1.30;;;22.70;99.90;;;;;;21148868;28;20215;-72
2021/09/24 22:41:15;;;;;;;1.13;0.70;;;22.70;99.90;;;;;;21149254;28;20695;-72
2021/09/24 22:51:19;;;;;;;0.30;0.30;;;22.50;99.90;;;;;;21148292;28;20696;-73
2021/09/24 23:01:24;;;;;;;0.87;0.50;;;22.40;99.90;;;;;;21147932;28;20332;-73
2021/09/24 23:11:28;;;;;;;1.27;0.20;;;22.20;99.90;;;;;;21128594;28;20219;-72
2021/09/24 23:21:33;;;;;;;0.70;0.50;;;22.00;99.90;;;;;;21135394;28;20200;-72
2021/09/24 23:31:37;;;;;;;0.40;0.20;;;22.00;99.90;;;;;;21079355;28;20611;-70
2021/09/24 23:41:52;;;;;;;1.47;0.77;;;21.90;99.90;;;;;;21078673;28;20196;-72
2021/09/24 23:51:56;;;;;;;0.40;0.40;;;21.90;99.90;;;;;;21077408;28;20222;-71
